地図

経路データ

SID SEASON NUMBER BASIN SUBBASIN NAME ISO_TIME NATURE LAT LON WMO_WIND WMO_PRES WMO_AGENCY TRACK_TYPE DIST2LAND LANDFALL IFLAG USA_AGENCY USA_ATCF_ID USA_LAT USA_LON USA_RECORD USA_STATUS USA_WIND USA_PRES USA_SSHS USA_R34_NE USA_R34_SE USA_R34_SW USA_R34_NW USA_R50_NE USA_R50_SE USA_R50_SW USA_R50_NW USA_R64_NE USA_R64_SE USA_R64_SW USA_R64_NW USA_POCI USA_ROCI USA_RMW USA_EYE TOKYO_LAT TOKYO_LON TOKYO_GRADE TOKYO_WIND TOKYO_PRES TOKYO_R50_DIR TOKYO_R50_LONG TOKYO_R50_SHORT TOKYO_R30_DIR TOKYO_R30_LONG TOKYO_R30_SHORT TOKYO_LAND CMA_LAT CMA_LON CMA_CAT CMA_WIND CMA_PRES HKO_LAT HKO_LON HKO_CAT HKO_WIND HKO_PRES NEWDELHI_LAT NEWDELHI_LON NEWDELHI_GRADE NEWDELHI_WIND NEWDELHI_PRES NEWDELHI_CI NEWDELHI_DP NEWDELHI_POCI REUNION_LAT REUNION_LON REUNION_TYPE REUNION_WIND REUNION_PRES REUNION_TNUM REUNION_CI REUNION_RMW REUNION_R34_NE REUNION_R34_SE REUNION_R34_SW REUNION_R34_NW REUNION_R50_NE REUNION_R50_SE REUNION_R50_SW REUNION_R50_NW REUNION_R64_NE REUNION_R64_SE REUNION_R64_SW REUNION_R64_NW BOM_LAT BOM_LON BOM_TYPE BOM_WIND BOM_PRES BOM_TNUM BOM_CI BOM_RMW BOM_R34_NE BOM_R34_SE BOM_R34_SW BOM_R34_NW BOM_R50_NE BOM_R50_SE BOM_R50_SW BOM_R50_NW BOM_R64_NE BOM_R64_SE BOM_R64_SW BOM_R64_NW BOM_ROCI BOM_POCI BOM_EYE BOM_POS_METHOD BOM_PRES_METHOD NADI_LAT NADI_LON NADI_CAT NADI_WIND NADI_PRES WELLINGTON_LAT WELLINGTON_LON WELLINGTON_WIND WELLINGTON_PRES DS824_LAT DS824_LON DS824_STAGE DS824_WIND DS824_PRES TD9636_LAT TD9636_LON TD9636_STAGE TD9636_WIND TD9636_PRES TD9635_LAT TD9635_LON TD9635_WIND TD9635_PRES TD9635_ROCI NEUMANN_LAT NEUMANN_LON NEUMANN_CLASS NEUMANN_WIND NEUMANN_PRES MLC_LAT MLC_LON MLC_CLASS MLC_WIND MLC_PRES USA_GUST BOM_GUST BOM_GUST_PER REUNION_GUST REUNION_GUST_PER USA_SEAHGT USA_SEARAD_NE USA_SEARAD_SE USA_SEARAD_SW USA_SEARAD_NW STORM_SPEED STORM_DIR
1996325S08104 1997 115 SI WA CHANTELLE:DANIELLA 1996-11-20 00:00:00 TS -7.50000 103.700 main 183 183 O___________O_ jtwc_sh SH071997 -7.50000 103.700 15 -1 -7.50000 103.700 TC 15 14 286
1996325S08104 1997 115 SI WA CHANTELLE:DANIELLA 1996-11-20 03:00:00 TS -7.29520 103.002 main 236 236 P___________P_ SH071997 -7.29520 103.002 15 -1 -7.29520 103.002 TC 15 14 286
1996325S08104 1997 115 SI WA CHANTELLE:DANIELLA 1996-11-20 06:00:00 TS -7.10000 102.300 main 275 275 O___________O_ jtwc_sh SH071997 -7.10000 102.300 15 -1 -7.10000 102.300 TC 15 14 285
1996325S08104 1997 115 SI WA CHANTELLE:DANIELLA 1996-11-20 09:00:00 TS -6.92743 101.593 main 301 301 P___________P_ SH071997 -6.92743 101.593 15 -1 -6.92743 101.593 TC 15 14 282
1996325S08104 1997 115 SI WA CHANTELLE:DANIELLA 1996-11-20 12:00:00 TS -6.80000 100.900 main 339 339 O___________O_ jtwc_sh SH071997 -6.80000 100.900 15 -1 -6.80000 100.900 TC 15 14 278
1996325S08104 1997 115 SI WA CHANTELLE:DANIELLA 1996-11-20 15:00:00 TS -6.72744 100.228 main 381 381 P___________P_ SH071997 -6.72744 100.228 15 -1 -6.72744 100.228 TC 15 13 274
1996325S08104 1997 115 SI WA CHANTELLE:DANIELLA 1996-11-20 18:00:00 TS -6.70000 99.6000 main 425 425 O___________O_ jtwc_sh SH071997 -6.70000 99.6000 15 -1 -6.70000 99.6000 TC 15 12 272
1996325S08104 1997 115 SI WA CHANTELLE:DANIELLA 1996-11-20 21:00:00 TS -6.69243 99.0200 main 474 474 P___________P_ SH071997 -6.69243 99.0200 15 -1 -6.69243 99.0200 TC 15 11 270
1996325S08104 1997 115 SI WA CHANTELLE:DANIELLA 1996-11-21 00:00:00 TS -6.70000 98.5000 main 518 518 O___________O_ jtwc_sh SH071997 -6.70000 98.5000 15 -1 -6.70000 98.5000 TC 15 10 270
1996325S08104 1997 115 SI WA CHANTELLE:DANIELLA 1996-11-21 03:00:00 TS -6.69997 98.0125 main 559 559 P___________P_ SH071997 -6.69997 98.0125 15 -1 -6.69997 98.0125 TC 15 9 270
1996325S08104 1997 115 SI WA CHANTELLE:DANIELLA 1996-11-21 06:00:00 TS -6.70000 97.6000 main 573 573 O___________O_ jtwc_sh SH071997 -6.70000 97.6000 15 -1 -6.70000 97.6000 TC 15 7 270
1996325S08104 1997 115 SI WA CHANTELLE:DANIELLA 1996-11-21 09:00:00 TS -6.69995 97.2700 main 584 584 P___________P_ SH071997 -6.69995 97.2700 17 -1 -6.69995 97.2700 TC 17 6 270
1996325S08104 1997 115 SI WA CHANTELLE:DANIELLA 1996-11-21 12:00:00 TS -6.70000 97.0000 main 596 596 O___________O_ jtwc_sh SH071997 -6.70000 97.0000 20 -1 -6.70000 97.0000 TC 20 5 270
1996325S08104 1997 115 SI WA CHANTELLE:DANIELLA 1996-11-21 15:00:00 TS -6.69999 96.7275 main 610 610 P___________P_ SH071997 -6.69999 96.7275 20 -1 -6.69999 96.7275 TC 20 5 270
1996325S08104 1997 115 SI WA CHANTELLE:DANIELLA 1996-11-21 18:00:00 TS -6.70000 96.5000 main 620 620 O___________O_ jtwc_sh SH071997 -6.70000 96.5000 20 -1 -6.70000 96.5000 TC 20 4 270
1996325S08104 1997 115 SI WA CHANTELLE:DANIELLA 1996-11-21 21:00:00 TS -6.69998 96.3350 main 630 630 P___________P_ SH071997 -6.69998 96.3350 20 -1 -6.69998 96.3350 TC 20 3 270
1996325S08104 1997 115 SI WA CHANTELLE:DANIELLA 1996-11-22 00:00:00 TS -6.70000 96.2000 main 635 635 O___________O_ jtwc_sh SH071997 -6.70000 96.2000 20 -1 -6.70000 96.2000 TC 20 3 270
1996325S08104 1997 115 SI WA CHANTELLE:DANIELLA 1996-11-22 03:00:00 TS -6.70000 96.0500 main 640 640 P___________P_ SH071997 -6.70000 96.0500 20 -1 -6.70000 96.0500 TC 20 3 270
1996325S08104 1997 115 SI WA CHANTELLE:DANIELLA 1996-11-22 06:00:00 TS -6.70000 95.9000 main 651 651 O___________O_ jtwc_sh SH071997 -6.70000 95.9000 20 -1 -6.70000 95.9000 TC 20 3 271
1996325S08104 1997 115 SI WA CHANTELLE:DANIELLA 1996-11-22 09:00:00 TS -6.69249 95.7575 main 657 657 P___________P_ SH071997 -6.69249 95.7575 20 -1 -6.69249 95.7575 TC 20 3 270
1996325S08104 1997 115 SI WA CHANTELLE:DANIELLA 1996-11-22 12:00:00 TS -6.70000 95.6000 main 669 669 O___________O_ jtwc_sh SH071997 -6.70000 95.6000 20 -1 -6.70000 95.6000 TC 20 4 258
1996325S08104 1997 115 SI WA CHANTELLE:DANIELLA 1996-11-22 15:00:00 TS -6.76500 95.4075 main 690 690 P___________P_ SH071997 -6.76500 95.4075 20 -1 -6.76500 95.4075 TC 20 4 256
1996325S08104 1997 115 SI WA CHANTELLE:DANIELLA 1996-11-22 18:00:00 TS -6.80000 95.2000 main 703 701 O___________O_ jtwc_sh SH071997 -6.80000 95.2000 20 -1 -6.80000 95.2000 TC 20 4 278
1996325S08104 1997 115 SI WA CHANTELLE:DANIELLA 1996-11-22 21:00:00 TS -6.70748 95.0075 main 707 706 P___________P_ SH071997 -6.70748 95.0075 22 -1 -6.70748 95.0075 TC 22 4 297
1996325S08104 1997 115 SI WA CHANTELLE:DANIELLA 1996-11-23 00:00:00 TS -6.60000 94.8000 main 713 713 O___________O_ jtwc_sh SH071997 -6.60000 94.8000 25 -1 -6.60000 94.8000 TC 25 4 284
1996325S08104 1997 115 SI WA CHANTELLE:DANIELLA 1996-11-23 03:00:00 TS -6.59997 94.5726 main 727 727 P___________P_ SH071997 -6.59997 94.5726 25 -1 -6.59997 94.5726 TC 25 5 267
1996325S08104 1997 115 SI WA CHANTELLE:DANIELLA 1996-11-23 06:00:00 TS -6.62222 94.2889 main 749 749 O____O______O_ jtwc_sh SH071997 -6.60000 94.3000 25 -1 -6.80000 94.2000 2 25 1000 2.00000 2.00000 -6.60000 94.3000 TC 25 6 274
1996325S08104 1997 115 SI WA CHANTELLE:DANIELLA 1996-11-23 09:00:00 TS -6.55801 93.9355 main 780 772 P____P______P_ SH071997 -6.50749 93.9725 25 -1 -6.76009 93.7875 2 25 999 -6.50749 93.9725 TC 25 8 281
1996325S08104 1997 115 SI WA CHANTELLE:DANIELLA 1996-11-23 12:00:00 TS -6.48182 93.5455 main 805 805 O____O______O_ jtwc_sh SH071997 -6.40000 93.6000 25 -1 -6.70000 93.4000 2 25 999 2.00000 2.00000 -6.40000 93.6000 TC 25 8 280
1996325S08104 1997 115 SI WA CHANTELLE:DANIELLA 1996-11-23 15:00:00 TS -6.42079 93.1600 main 823 823 P____P______P_ SH071997 -6.32747 93.2150 25 -1 -6.60744 93.0500 2 25 999 -6.32747 93.2150 TC 25 8 278
1996325S08104 1997 115 SI WA CHANTELLE:DANIELLA 1996-11-23 18:00:00 TS -6.36667 92.7667 main 857 857 O____O______O_ jtwc_sh SH071997 -6.30000 92.8000 25 -1 -6.50000 92.7000 2 25 999 2.00000 2.00000 -6.30000 92.8000 TC 25 8 275
1996325S08104 1997 115 SI WA CHANTELLE:DANIELLA 1996-11-23 21:00:00 TS -6.34412 92.3508 main 886 886 P____P______P_ SH071997 -6.32746 92.3650 27 -1 -6.37745 92.3225 2 27 998 -6.32746 92.3650 TC 27 9 270
1996325S08104 1997 115 SI WA CHANTELLE:DANIELLA 1996-11-24 00:00:00 TS -6.36667 91.9000 main 938 938 O____O______O_ jtwc_sh SH071997 -6.40000 91.9000 30 -1 -6.30000 91.9000 2 30 997 2.50000 2.50000 -6.40000 91.9000 TC 30 9 265
1996325S08104 1997 115 SI WA CHANTELLE:DANIELLA 1996-11-24 03:00:00 TS -6.42994 91.4225 main 985 985 P____P______P_ SH071997 -6.49242 91.4225 32 -1 -6.30497 91.4225 2 30 997 -6.49242 91.4225 TC 32 10 260
1996325S08104 1997 115 SI WA CHANTELLE:DANIELLA 1996-11-24 06:00:00 TS -6.53333 90.9000 main 1038 1038 O____O______O_ jtwc_sh SH071997 -6.60000 90.9000 35 0 -6.40000 90.9000 2 30 997 2.50000 2.50000 -6.60000 90.9000 TC 35 11 258
1996325S08104 1997 115 SI WA CHANTELLE:DANIELLA 1996-11-24 09:00:00 TS -6.65404 90.3541 main 1097 1097 P____P______P_ SH071997 -6.69242 90.3299 35 0 -6.57729 90.4025 2 30 997 -6.69242 90.3299 TC 35 12 257
1996325S08104 1997 115 SI MM CHANTELLE:DANIELLA 1996-11-24 12:00:00 TS -6.80000 89.7333 30 997 reunion main 1169 1169 O____O______O_ jtwc_sh SH071997 -6.80000 89.7000 35 0 -6.80000 89.8000 2 30 997 2.50000 2.50000 -6.80000 89.7000 TC 35 14 257
1996325S08104 1997 115 SI MM CHANTELLE:DANIELLA 1996-11-24 15:00:00 TS -6.96670 89.0009 main 1247 1247 P____P______P_ SH071997 -6.94243 89.0225 37 0 -7.01524 88.9576 2 30 997 -6.94243 89.0225 TC 37 15 257
1996325S08104 1997 115 SI MM CHANTELLE:DANIELLA 1996-11-24 18:00:00 TS -7.13333 88.2333 30 997 reunion main 1330 1330 O____O______O_ jtwc_sh SH071997 -7.10000 88.3000 40 0 -7.20000 88.1000 2 30 997 2.50000 2.50000 -7.10000 88.3000 TC 40 15 259
1996325S08104 1997 115 SI MM CHANTELLE:DANIELLA 1996-11-24 21:00:00 TS -7.26406 87.5182 main 1408 1408 P____P______P_ SH071997 -7.24245 87.5499 42 0 -7.30728 87.4549 2 30 997 -7.24245 87.5499 TC 42 14 259
1996325S08104 1997 115 SI MM CHANTELLE:DANIELLA 1996-11-25 00:00:00 TS -7.40000 86.8333 30 997 reunion main 1482 1482 O____O______O_ jtwc_sh SH071997 -7.40000 86.8000 45 0 -7.40000 86.9000 2 30 997 2.50000 2.50000 -7.40000 86.8000 TC 45 14 257
1996325S08104 1997 115 SI MM CHANTELLE:DANIELLA 1996-11-25 03:00:00 TS -7.56574 86.1683 main 1551 1551 P____P______P_ SH071997 -7.58495 86.0700 47 0 -7.52731 86.3649 2 30 997 -7.58495 86.0700 TC 47 13 254
1996325S08104 1997 115 SI MM CHANTELLE:DANIELLA 1996-11-25 06:00:00 TS -7.76667 85.5333 30 997 reunion main 1628 1621 O____O______O_ jtwc_sh SH071997 -7.80000 85.4000 50 0 -7.70000 85.8000 2 30 997 2.50000 2.50000 -7.80000 85.4000 TC 50 13 250
1996325S08104 1997 115 SI MM CHANTELLE:DANIELLA 1996-11-25 09:00:00 TS -8.01158 84.9183 main 1629 1629 P____P______P_ SH071997 -8.04983 84.8275 52 0 -7.93509 85.1001 2 30 997 -8.04983 84.8275 TC 52 13 247
1996325S08104 1997 115 SI MM CHANTELLE:DANIELLA 1996-11-25 12:00:00 TS -8.26667 84.3333 30 997 reunion main 1643 1640 O____O______O_ jtwc_sh SH071997 -8.30000 84.3000 55 0 -8.20000 84.4000 2 30 997 2.50000 2.50000 -8.30000 84.3000 TC 55 12 246
1996325S08104 1997 115 SI MM CHANTELLE:DANIELLA 1996-11-25 15:00:00 TS -8.51073 83.7734 main 1652 1649 P____P______P_ SH071997 -8.52992 83.7500 57 0 -8.47235 83.8200 2 30 996 -8.52992 83.7500 TC 57 12 248
1996325S08104 1997 115 SI MM CHANTELLE:DANIELLA 1996-11-25 18:00:00 TS -8.70000 83.2333 30 995 reunion main 1661 1657 O____O______O_ jtwc_sh SH071997 -8.70000 83.2000 60 0 -8.70000 83.3000 2 30 995 2.50000 2.50000 -8.70000 83.2000 TC 60 11 255
1996325S08104 1997 115 SI MM CHANTELLE:DANIELLA 1996-11-25 21:00:00 TS -8.79408 82.6974 main 1663 1656 P____P______P_ SH071997 -8.77242 82.6499 62 0 -8.83740 82.7924 2 35 991 -8.77242 82.6499 TC 62 11 263
1996325S08104 1997 115 SI MM CHANTELLE:DANIELLA 1996-11-26 00:00:00 TS -8.83333 82.1667 40 988 reunion main 1656 1654 O____O______O_ jtwc_sh SH071997 -8.80000 82.1000 65 1 -8.90000 82.3000 3 40 988 3.00000 3.00000 -8.80000 82.1000 TC 65 11 266
1996325S08104 1997 115 SI MM CHANTELLE:DANIELLA 1996-11-26 03:00:00 TS -8.87659 81.6333 main 1662 1659 P____P______P_ SH071997 -8.85742 81.5500 65 1 -8.91493 81.7999 3 42 985 -8.85742 81.5500 TC 65 11 266
1996325S08104 1997 115 SI MM CHANTELLE:DANIELLA 1996-11-26 06:00:00 TS -8.90000 81.1000 45 983 reunion main 1659 1658 O____O______O_ jtwc_sh SH071997 -8.90000 81.0000 65 1 -8.90000 81.3000 3 45 983 3.50000 3.50000 -8.90000 81.0000 TC 65 11 268
1996325S08104 1997 115 SI MM CHANTELLE:DANIELLA 1996-11-26 09:00:00 TS -8.90497 80.5541 main 1658 1658 P____P______P_ SH071997 -8.90748 80.4350 65 1 -8.89996 80.7925 3 45 983 -8.90748 80.4350 TC 65 11 270
1996325S08104 1997 115 SI MM CHANTELLE:DANIELLA 1996-11-26 12:00:00 TS -8.90000 80.0333 45 983 reunion main 1659 1659 O____O______O_ jtwc_sh SH071997 -8.90000 79.9000 65 1 -8.90000 80.3000 3 45 983 3.50000 3.50000 -8.90000 79.9000 TC 65 10 270
1996325S08104 1997 115 SI MM CHANTELLE:DANIELLA 1996-11-26 15:00:00 TS -8.90491 79.5659 main 1662 1662 P____P______P_ SH071997 -8.90741 79.4275 65 1 -8.89992 79.8425 3 45 983 -8.90741 79.4275 TC 65 9 270
1996325S08104 1997 115 SI MM CHANTELLE:DANIELLA 1996-11-26 18:00:00 TS -8.90000 79.1333 45 983 reunion main 1666 1666 O____O______O_ jtwc_sh SH071997 -8.90000 79.0000 65 1 -8.90000 79.4000 3 45 983 3.50000 3.50000 -8.90000 79.0000 TC 65 9 272
1996325S08104 1997 115 SI MM CHANTELLE:DANIELLA 1996-11-26 21:00:00 TS -8.88164 78.6992 main 1671 1665 P____P______P_ SH071997 -8.87248 78.5775 65 1 -8.89997 78.9425 3 45 983 -8.87248 78.5775 TC 65 8 275
1996325S08104 1997 115 SI MM CHANTELLE:DANIELLA 1996-11-27 00:00:00 TS -8.83333 78.3000 45 983 reunion main 1666 1666 O____O______O_ jtwc_sh SH071997 -8.80000 78.2000 65 1 -8.90000 78.5000 3 45 983 3.50000 3.50000 -8.80000 78.2000 TC 65 8 280
1996325S08104 1997 115 SI MM CHANTELLE:DANIELLA 1996-11-27 03:00:00 TS -8.75080 77.9442 main 1674 1656 P____P______P_ SH071997 -8.67244 77.8850 62 0 -8.90751 78.0625 3 45 983 -8.67244 77.8850 TC 62 7 287
1996325S08104 1997 115 SI MM CHANTELLE:DANIELLA 1996-11-27 06:00:00 TS -8.63333 77.6333 45 983 reunion main 1658 1652 O____O______O_ jtwc_sh SH071997 -8.50000 77.6000 60 0 -8.90000 77.7000 3 45 983 3.50000 3.50000 -8.50000 77.6000 TC 60 6 293
1996325S08104 1997 115 SI MM CHANTELLE:DANIELLA 1996-11-27 09:00:00 TS -8.50578 77.3617 main 1652 1637 P____P______P_ SH071997 -8.30748 77.3000 60 0 -8.90239 77.4851 3 47 981 -8.30748 77.3000 TC 60 6 300
1996325S08104 1997 115 SI MM CHANTELLE:DANIELLA 1996-11-27 12:00:00 TS -8.33333 77.1000 50 980 reunion main 1637 1624 O____O______O_ jtwc_sh SH071997 -8.10000 77.0000 60 0 -8.80000 77.3000 3 50 980 4.00000 4.00000 -8.10000 77.0000 TC 60 7 306
1996325S08104 1997 115 SI MM CHANTELLE:DANIELLA 1996-11-27 15:00:00 TS -8.10833 76.8000 main 1624 1601 P____P______P_ SH071997 -7.90749 76.6925 60 0 -8.51000 77.0150 3 50 980 -7.90749 76.6925 TC 60 8 310
1996325S08104 1997 115 SI MM CHANTELLE:DANIELLA 1996-11-27 18:00:00 TS -7.83333 76.5000 50 980 reunion main 1601 1579 O____O______O_ jtwc_sh SH071997 -7.70000 76.4000 60 0 -8.10000 76.7000 3 50 980 3.50000 4.00000 -7.70000 76.4000 TC 60 8 315
1996325S08104 1997 115 SI MM CHANTELLE:DANIELLA 1996-11-27 21:00:00 TS -7.53165 76.2208 main 1579 1554 P____P______P_ SH071997 -7.46498 76.1350 57 0 -7.66499 76.3925 3 50 980 -7.46498 76.1350 TC 57 8 320
1996325S08104 1997 115 SI MM CHANTELLE:DANIELLA 1996-11-28 00:00:00 TS -7.20000 75.9667 50 980 reunion main 1554 1529 O____O______O_ jtwc_sh SH071997 -7.20000 75.9000 55 0 -7.20000 76.1000 3 50 980 3.00000 4.00000 -7.20000 75.9000 TC 55 8 325
1996325S08104 1997 115 SI MM CHANTELLE:DANIELLA 1996-11-28 03:00:00 TS -6.84499 75.7350 main 1522 1494 P____P______P_ SH071997 -6.90749 75.6850 52 0 -6.71999 75.8350 3 47 981 -6.90749 75.6850 TC 52 8 328
1996325S08104 1997 115 SI MM CHANTELLE:DANIELLA 1996-11-28 06:00:00 TS -6.50000 75.5333 45 983 reunion main 1498 1471 O____O______O_ jtwc_sh SH071997 -6.60000 75.5000 50 0 -6.30000 75.6000 3 45 983 2.00000 3.50000 -6.60000 75.5000 TC 50 7 330
1996325S08104 1997 115 SI MM CHANTELLE:DANIELLA 1996-11-28 09:00:00 TS -6.20665 75.3592 main 1471 1448 P____P______P_ SH071997 -6.30748 75.3500 47 0 -6.00500 75.3775 3 42 985 -6.30748 75.3500 TC 47 7 330
1996325S08104 1997 115 SI MM CHANTELLE:DANIELLA 1996-11-28 12:00:00 TS -5.93333 75.2000 40 988 reunion main 1448 1432 O____O______O_ jtwc_sh SH071997 -6.00000 75.2000 45 0 -5.80000 75.2000 3 40 988 2.00000 3.00000 -6.00000 75.2000 TC 45 7 330
1996325S08104 1997 115 SI MM CHANTELLE:DANIELLA 1996-11-28 15:00:00 TS -5.64249 75.0358 main 1427 1411 P____P______P_ SH071997 -5.65751 75.0000 42 0 -5.61247 75.1075 3 35 991 -5.65751 75.0000 TC 42 7 330
1996325S08104 1997 115 SI MM CHANTELLE:DANIELLA 1996-11-28 18:00:00 TS -5.36667 74.8667 30 995 reunion main 1411 1390 O____O______O_ jtwc_sh SH071997 -5.30000 74.8000 40 0 -5.50000 75.0000 2 30 995 2.00000 2.50000 -5.30000 74.8000 TC 40 6 327
1996325S08104 1997 115 SI MM CHANTELLE:DANIELLA 1996-11-28 21:00:00 TS -5.12082 74.6934 main 1390 1381 P____P______P_ SH071997 -4.94999 74.6500 37 0 -5.46250 74.7800 2 27 997 -4.94999 74.6500 TC 37 6 322
1996325S08104 1997 115 SI MM CHANTELLE:DANIELLA 1996-11-29 00:00:00 TS -4.90000 74.5000 25 999 reunion main 1381 1366 O____O______O_ jtwc_sh SH071997 -4.60000 74.5000 35 0 -5.50000 74.5000 2 25 999 2.00000 2.00000 -4.60000 74.5000 TC 35 6 317
1996325S08104 1997 115 SI MM CHANTELLE:DANIELLA 1996-11-29 03:00:00 TS -4.67250 74.2742 main 1372 1363 P____P______P_ SH071997 -4.22000 74.3075 32 -1 -5.57750 74.2075 2 25 999 -4.22000 74.3075 TC 32 6 311
1996325S08104 1997 115 SI MM CHANTELLE:DANIELLA 1996-11-29 06:00:00 TS -4.50000 74.0333 25 1000 reunion main 1369 1365 O____O______O_ jtwc_sh SH071997 -3.90000 74.1000 30 -1 -5.70000 73.9000 2 25 1000 2.00000 2.00000 -3.90000 74.1000 TC 30 5 298
1996325S08104 1997 115 SI MM CHANTELLE:DANIELLA 1996-11-29 09:00:00 TS -4.42250 73.7925 main 1371 1371 P____P______P_ SH071997 -3.70500 73.8925 27 -1 -5.85750 73.5925 2 25 1000 -3.70500 73.8925 TC 27 5 282
1996325S08104 1997 115 SI MM CHANTELLE:DANIELLA 1996-11-29 12:00:00 TS -4.40000 73.5667 25 1000 reunion main 1383 1383 O____O______O_ jtwc_sh SH071997 -3.60000 73.7000 25 -1 -6.00000 73.3000 2 25 1000 2.00000 2.00000 -3.60000 73.7000 TC 25 4 276
1996325S08104 1997 115 SI MM CHANTELLE:DANIELLA 1996-11-29 15:00:00 TS -4.37831 73.3833 main 1395 1382 P____P______P_ SH071997 -3.52749 73.5425 25 -1 -6.07994 73.0650 2 25 1000 -3.52749 73.5425 TC 25 4 300
1996325S08104 1997 115 SI MM CHANTELLE:DANIELLA 1996-11-29 18:00:00 TS -4.20909 73.2364 25 1000 reunion main 1389 1377 O____O______O_ jtwc_sh SH071997 -3.50000 73.4000 25 -1 -6.10000 72.8000 2 25 1000 2.00000 2.00000 -3.50000 73.4000 TC 25 5 322
1996325S08104 1997 115 SI MM CHANTELLE:DANIELLA 1996-11-29 21:00:00 TS -4.00102 73.0865 main 1377 1365 P____P______P_ SH071997 -3.48500 73.2500 22 -1 -6.06510 72.4325 2 25 1001 -3.48500 73.2500 TC 22 5 329
1996325S08104 1997 115 SI MM CHANTELLE:DANIELLA 1996-11-30 00:00:00 TS -3.77778 72.9778 25 1002 reunion main 1365 1338 O____O______O_ jtwc_sh SH071997 -3.50000 73.1000 20 -1 -6.00000 72.0000 2 25 1002 2.00000 2.00000 -3.50000 73.1000 TC 20 5 346
1996325S08104 1997 115 SI MM CHANTELLE:DANIELLA 1996-11-30 03:00:00 TS -3.53499 72.9650 main 1338 1338 P___________P_ SH071997 -3.53499 72.9650 20 -1 2 -3.53499 72.9650 TC 20 3 315
1996325S08104 1997 115 SI MM CHANTELLE:DANIELLA 1996-11-30 06:00:00 TS -3.60000 72.8000 main 1361 1361 O___________O_ jtwc_sh SH071997 -3.60000 72.8000 20 -1 -3.60000 72.8000 TC 20 4 249
1996325S08104 1997 115 SI MM CHANTELLE:DANIELLA 1996-11-30 09:00:00 TS -3.68500 72.5725 main 1383 1383 P___________P_ SH071997 -3.68500 72.5725 20 -1 -3.68500 72.5725 TC 20 5 248
1996325S08104 1997 115 SI MM CHANTELLE:DANIELLA 1996-11-30 12:00:00 TS -3.80000 72.3000 main 1413 1413 O___________O_ jtwc_sh SH071997 -3.80000 72.3000 20 -1 -3.80000 72.3000 TC 20 6 246
1996325S08104 1997 115 SI MM CHANTELLE:DANIELLA 1996-11-30 15:00:00 TS -3.92749 72.0150 main 1442 1442 P___________P_ SH071997 -3.92749 72.0150 20 -1 -3.92749 72.0150 TC 20 7 243
1996325S08104 1997 115 SI MM CHANTELLE:DANIELLA 1996-11-30 18:00:00 TS -4.10000 71.7000 main 1481 1481 O___________O_ jtwc_sh SH071997 -4.10000 71.7000 20 -1 -4.10000 71.7000 TC 20 8 239
1996325S08104 1997 115 SI MM CHANTELLE:DANIELLA 1996-11-30 21:00:00 TS -4.31247 71.3724 main 1520 1520 P___________P_ SH071997 -4.31247 71.3724 20 -1 -4.31247 71.3724 TC 20 9 234
1996325S08104 1997 115 SI MM CHANTELLE:DANIELLA 1996-12-01 00:00:00 TS -4.60000 71.0000 main 1574 1574 O___________O_ jtwc_sh SH071997 -4.60000 71.0000 20 -1 -4.60000 71.0000 TC 20 10 231
1996325S08104 1997 115 SI MM CHANTELLE:DANIELLA 1996-12-01 03:00:00 TS -4.95496 70.5874 main 1637 1637 P___________P_ SH071997 -4.95496 70.5874 20 -1 -4.95496 70.5874 TC 20 12 228
1996325S08104 1997 115 SI MM CHANTELLE:DANIELLA 1996-12-01 06:00:00 TS -5.40000 70.1000 main 1707 1707 O___________O_ jtwc_sh SH071997 -5.40000 70.1000 20 -1 -5.40000 70.1000 TC 20 14 227
1996325S08104 1997 115 SI MM CHANTELLE:DANIELLA 1996-12-01 09:00:00 TS -5.92766 69.5253 main 1791 1791 P___________P_ SH071997 -5.92748 69.5299 20 -1 -5.92766 69.5253 TC 20 16 227
1996325S08104 1997 115 SI MM CHANTELLE:DANIELLA 1996-12-01 12:00:00 TS -6.50000 68.9000 main 1883 1859 O___________O_ jtwc_sh SH071997 -6.50000 68.9000 20 -1 -6.50000 68.9000 TC 20 17 228
1996325S08104 1997 115 SI MM CHANTELLE:DANIELLA 1996-12-01 15:00:00 TS -7.06761 68.2728 main 1850 1759 P_____________ SH071997 -7.06487 68.2724 20 -1 TC 17 230
1996325S08104 1997 115 SI MM CHANTELLE:DANIELLA 1996-12-01 18:00:00 TS -7.60000 67.6000 main 1759 1678 O_____________ jtwc_sh SH081997 -7.60000 67.6000 20 -1 17 234
1996325S08104 1997 115 SI MM CHANTELLE:DANIELLA 1996-12-01 21:00:00 TS -8.07247 66.8574 main 1669 1582 P_____________ SH081997 -8.07247 66.8574 22 -1 17 239
1996325S08104 1997 115 SI MM CHANTELLE:DANIELLA 1996-12-02 00:00:00 TS -8.50000 66.1000 main 1582 1502 O_____________ jtwc_sh SH081997 -8.50000 66.1000 25 -1 17 239
1996325S08104 1997 115 SI MM CHANTELLE:DANIELLA 1996-12-02 03:00:00 TS -8.93740 65.3775 main 1502 1429 P_____________ SH081997 -8.93740 65.3775 25 -1 16 239
1996325S08104 1997 115 SI MM CHANTELLE:DANIELLA 1996-12-02 06:00:00 TS -9.33333 64.7222 25 1000 reunion main 1423 1361 O_____________ jtwc_sh SH081997 -9.30000 64.7000 25 -1 14 242
1996325S08104 1997 115 SI MM CHANTELLE:DANIELLA 1996-12-02 09:00:00 TS -9.60245 64.1144 main 1361 1315 P_____________ SH081997 -9.54488 64.0699 25 -1 12 249
1996325S08104 1997 115 SI MM CHANTELLE:DANIELLA 1996-12-02 12:00:00 TS -9.78182 63.5545 25 999 reunion main 1315 1275 O_____________ jtwc_sh SH081997 -9.70000 63.5000 25 -1 11 255
1996325S08104 1997 115 SI MM CHANTELLE:DANIELLA 1996-12-02 15:00:00 TS -9.88326 63.0198 main 1275 1246 P_____________ SH081997 -9.79244 62.9623 27 -1 10 260
1996325S08104 1997 115 SI MM CHANTELLE:DANIELLA 1996-12-02 18:00:00 TS -9.96667 62.5333 28 997 reunion main 1242 1214 O_____________ jtwc_sh SH081997 -9.90000 62.5000 30 -1 10 254
1996325S08104 1997 115 SI MM CHANTELLE:DANIELLA 1996-12-02 21:00:00 TS -10.1466 62.0934 main 1214 1171 P_____________ SH081997 -10.1349 62.1200 30 -1 9 243
1996325S08104 1997 115 SI MM CHANTELLE:DANIELLA 1996-12-03 00:00:00 TS -10.3667 61.7333 35 992 reunion main 1167 1138 O_____________ jtwc_sh SH081997 -10.4000 61.8000 30 -1 8 236
1996325S08104 1997 115 SI MM CHANTELLE:DANIELLA 1996-12-03 03:00:00 TS -10.5683 61.4508 main 1138 1106 P_____________ SH081997 -10.5925 61.4774 32 -1 7 229
1996325S08104 1997 115 SI MM CHANTELLE:DANIELLA 1996-12-03 06:00:00 TS -10.8000 61.2333 35 990 reunion main 1106 1067 O_____________ jtwc_sh SH081997 -10.8000 61.2000 35 0 7 218
1996325S08104 1997 115 SI MM CHANTELLE:DANIELLA 1996-12-03 09:00:00 TS -11.0875 61.0350 main 1067 1032 P_____________ SH081997 -11.0850 60.9775 35 0 7 211
1996325S08104 1997 115 SI MM CHANTELLE:DANIELLA 1996-12-03 12:00:00 TS -11.4000 60.8667 40 988 reunion main 1032 993 O_____________ jtwc_sh SH081997 -11.4000 60.8000 35 0 7 207
1996325S08104 1997 115 SI MM CHANTELLE:DANIELLA 1996-12-03 15:00:00 TS -11.7125 60.7166 main 993 957 P_____________ SH081997 -11.7150 60.6500 35 0 7 206
1996325S08104 1997 115 SI MM CHANTELLE:DANIELLA 1996-12-03 18:00:00 TS -12.0000 60.5667 45 985 reunion main 957 929 O_____________ jtwc_sh SH081997 -12.0000 60.5000 35 0 6 210
1996325S08104 1997 115 SI MM CHANTELLE:DANIELLA 1996-12-03 21:00:00 TS -12.2316 60.4058 main 929 902 P_____________ SH081997 -12.2150 60.3224 42 0 6 220
1996325S08104 1997 115 SI MM CHANTELLE:DANIELLA 1996-12-04 00:00:00 TS -12.4333 60.2000 45 983 reunion main 902 871 O_____________ jtwc_sh SH081997 -12.4000 60.1000 50 0 6 229
1996325S08104 1997 115 SI MM CHANTELLE:DANIELLA 1996-12-04 03:00:00 TS -12.6408 59.9250 main 871 841 P_____________ SH081997 -12.6075 59.8150 57 0 7 236
1996325S08104 1997 115 SI MM CHANTELLE:DANIELLA 1996-12-04 06:00:00 TS -12.8333 59.6000 50 980 reunion main 841 812 O_____________ jtwc_sh SH081997 -12.8000 59.5000 65 1 8 241
1996325S08104 1997 115 SI MM CHANTELLE:DANIELLA 1996-12-04 09:00:00 TS -13.0100 59.2550 main 812 782 P_____________ SH081997 -12.9575 59.1999 67 1 8 244
1996325S08104 1997 115 SI MM CHANTELLE:DANIELLA 1996-12-04 12:00:00 TS -13.1667 58.9000 55 975 reunion main 782 767 O_____________ jtwc_sh SH081997 -13.1000 58.9000 70 1 7 246
1996325S08104 1997 115 SI MM CHANTELLE:DANIELLA 1996-12-04 15:00:00 TS -13.3074 58.5691 main 767 752 P_____________ SH081997 -13.2574 58.6075 70 1 7 248
1996325S08104 1997 115 SI MM CHANTELLE:DANIELLA 1996-12-04 18:00:00 TS -13.4333 58.2333 60 967 reunion main 751 738 O_____________ jtwc_sh SH081997 -13.4000 58.3000 70 1 7 250
1996325S08104 1997 115 SI MM CHANTELLE:DANIELLA 1996-12-04 21:00:00 TS -13.5525 57.8641 main 727 716 P_____________ SH081997 -13.5000 57.9574 75 1 8 252
1996325S08104 1997 115 SI MM CHANTELLE:DANIELLA 1996-12-05 00:00:00 TS -13.6667 57.5000 70 955 reunion main 716 705 O_____________ jtwc_sh SH081997 -13.6000 57.6000 80 1 7 251
1996325S08104 1997 115 SI MM CHANTELLE:DANIELLA 1996-12-05 03:00:00 TS -13.7833 57.1558 main 705 695 P_____________ SH081997 -13.7500 57.2276 87 2 7 249
1996325S08104 1997 115 SI MM CHANTELLE:DANIELLA 1996-12-05 06:00:00 TS -13.9000 56.8667 80 945 reunion main 696 680 O_____________ jtwc_sh SH081997 -13.9000 56.9000 95 2 5 243
1996325S08104 1997 115 SI MM CHANTELLE:DANIELLA 1996-12-05 09:00:00 TS -14.0241 56.6658 main 680 657 P_____________ SH081997 -14.0149 56.6774 102 3 4 237
1996325S08104 1997 115 SI MM CHANTELLE:DANIELLA 1996-12-05 12:00:00 TS -14.1333 56.5000 90 930 reunion main 657 634 O_____________ jtwc_sh SH081997 -14.1000 56.5000 110 3 4 243
1996325S08104 1997 115 SI MM CHANTELLE:DANIELLA 1996-12-05 15:00:00 TS -14.2050 56.2950 main 634 610 P_____________ SH081997 -14.1500 56.2925 115 4 4 251
1996325S08104 1997 115 SI MM CHANTELLE:DANIELLA 1996-12-05 18:00:00 TS -14.2667 56.1000 100 915 reunion main 610 589 O_____________ jtwc_sh SH081997 -14.2000 56.1000 120 4 4 250
1996325S08104 1997 115 SI MM CHANTELLE:DANIELLA 1996-12-05 21:00:00 TS -14.3325 55.9250 main 589 577 P_____________ SH081997 -14.2775 55.9275 120 4 3 240
1996325S08104 1997 115 SI MM CHANTELLE:DANIELLA 1996-12-06 00:00:00 TS -14.4333 55.8000 100 915 reunion main 577 563 O_____________ jtwc_sh SH081997 -14.4000 55.8000 120 4 3 215
1996325S08104 1997 115 SI MM CHANTELLE:DANIELLA 1996-12-06 03:00:00 TS -14.5942 55.7392 main 563 560 P_____________ SH081997 -14.5775 55.7200 120 4 4 191
1996325S08104 1997 115 SI MM CHANTELLE:DANIELLA 1996-12-06 06:00:00 TS -14.8000 55.7333 100 915 reunion main 560 559 O_____________ jtwc_sh SH081997 -14.8000 55.7000 120 4 4 175
1996325S08104 1997 115 SI MM CHANTELLE:DANIELLA 1996-12-06 09:00:00 TS -15.0183 55.7691 main 569 566 P_____________ SH081997 -15.0425 55.7499 120 4 5 172
1996325S08104 1997 115 SI MM CHANTELLE:DANIELLA 1996-12-06 12:00:00 TS -15.2667 55.8000 100 915 reunion main 566 545 O_____________ jtwc_sh SH081997 -15.3000 55.8000 120 4 5 182
1996325S08104 1997 115 SI MM CHANTELLE:DANIELLA 1996-12-06 15:00:00 TS -15.5400 55.7675 main 545 517 P_____________ SH081997 -15.5425 55.7650 117 4 6 190
1996325S08104 1997 115 SI MM CHANTELLE:DANIELLA 1996-12-06 18:00:00 TS -15.8333 55.7000 95 925 reunion main 517 490 O_____________ jtwc_sh SH081997 -15.8000 55.7000 115 4 6 194
1996325S08104 1997 115 SI MM CHANTELLE:DANIELLA 1996-12-06 21:00:00 TS -16.1283 55.6192 main 490 460 P_____________ SH081997 -16.0925 55.6575 110 3 6 195
1996325S08104 1997 115 SI MM CHANTELLE:DANIELLA 1996-12-07 00:00:00 TS -16.4333 55.5333 90 930 reunion main 464 434 O_____________ jtwc_sh SH081997 -16.4000 55.6000 105 3 6 194
1996325S08104 1997 115 SI MM CHANTELLE:DANIELLA 1996-12-07 03:00:00 TS -16.7425 55.4641 main 434 411 P_____________ SH081997 -16.6925 55.5075 102 3 7 191
1996325S08104 1997 115 SI MM CHANTELLE:DANIELLA 1996-12-07 06:00:00 TS -17.0667 55.4000 85 935 reunion main 402 380 O_____________ jtwc_sh SH081997 -17.0000 55.4000 100 3 7 192
1996325S08104 1997 115 SI MM CHANTELLE:DANIELLA 1996-12-07 09:00:00 TS -17.4167 55.3109 main 380 354 P_____________ SH081997 -17.3425 55.2702 97 3 7 190
1996325S08104 1997 115 SI MM CHANTELLE:DANIELLA 1996-12-07 12:00:00 TS -17.7667 55.2667 80 945 reunion main 346 321 O_____________ jtwc_sh SH081997 -17.7000 55.2000 95 2 7 0
1996325S08104 1997 115 SI MM CHANTELLE:DANIELLA 1996-12-07 15:00:00 TS -18.0883 55.3125 main 321 290 P_____________ SH081997 -18.0575 55.2549 92 2 7 166
1996325S08104 1997 115 SI MM CHANTELLE:DANIELLA 1996-12-07 18:00:00 TS -18.4000 55.4333 75 950 reunion main 290 253 O_____________ jtwc_sh SH081997 -18.4000 55.4000 90 2 7 157
1996325S08104 1997 115 SI MM CHANTELLE:DANIELLA 1996-12-07 21:00:00 TS -18.7117 55.5967 main 253 216 P_____________ SH081997 -18.7000 55.5850 90 2 7 151
1996325S08104 1997 115 SI MM CHANTELLE:DANIELLA 1996-12-08 00:00:00 TS -19.0333 55.8000 70 955 reunion main 216 175 O_____________ jtwc_sh SH081997 -19.0000 55.8000 90 2 8 150
1996325S08104 1997 115 SI MM CHANTELLE:DANIELLA 1996-12-08 03:00:00 TS -19.3783 56.0067 main 175 142 P_____________ SH081997 -19.3500 55.9926 87 2 8 150
1996325S08104 1997 115 SI MM CHANTELLE:DANIELLA 1996-12-08 06:00:00 TS -19.7333 56.2333 70 960 reunion main 142 94 O_____________ jtwc_sh SH081997 -19.7000 56.2000 85 2 8 148
1996325S08104 1997 115 SI MM CHANTELLE:DANIELLA 1996-12-08 09:00:00 TS -20.0883 56.4809 main 94 63 P_____________ SH081997 -20.0075 56.4426 82 1 8 146
1996325S08104 1997 115 SI MM CHANTELLE:DANIELLA 1996-12-08 12:00:00 TS -20.4333 56.7333 65 962 reunion main 63 38 O_____________ jtwc_sh SH081997 -20.3000 56.7000 80 1 8 145
1996325S08104 1997 115 SI MM CHANTELLE:DANIELLA 1996-12-08 15:00:00 TS -20.7550 56.9743 main 45 45 P_____________ SH081997 -20.5925 56.9576 77 1 8 145
1996325S08104 1997 115 SI MM CHANTELLE:DANIELLA 1996-12-08 18:00:00 TS -21.0667 57.2000 60 967 reunion main 67 67 O_____________ jtwc_sh SH081997 -20.9000 57.2000 75 1 8 147
1996325S08104 1997 115 SI MM CHANTELLE:DANIELLA 1996-12-08 21:00:00 TS -21.3808 57.4126 main 100 100 P_____________ SH081997 -21.2425 57.4151 72 1 7 150
1996325S08104 1997 115 SI MM CHANTELLE:DANIELLA 1996-12-09 00:00:00 TS -21.7000 57.6000 55 975 reunion main 134 134 O_____________ jtwc_sh SH081997 -21.6000 57.6000 70 1 7 154
1996325S08104 1997 115 SI MM CHANTELLE:DANIELLA 1996-12-09 03:00:00 TS -22.0358 57.7626 main 168 168 P_____________ SH081997 -21.9575 57.7576 65 1 7 157
1996325S08104 1997 115 SI MM CHANTELLE:DANIELLA 1996-12-09 06:00:00 TS -22.3667 57.9000 45 984 reunion main 213 213 O_____________ jtwc_sh SH081997 -22.3000 57.9000 60 0 7 159
1996325S08104 1997 115 SI MM CHANTELLE:DANIELLA 1996-12-09 09:00:00 TS -22.6742 58.0317 main 247 247 P_____________ SH081997 -22.6075 58.0650 55 0 6 160
1996325S08104 1997 115 SI MM CHANTELLE:DANIELLA 1996-12-09 12:00:00 TS -22.9667 58.1333 40 988 reunion main 282 282 O_____________ jtwc_sh SH081997 -22.9000 58.2000 50 0 6 165
1996325S08104 1997 115 SI MM CHANTELLE:DANIELLA 1996-12-09 15:00:00 TS -23.2475 58.2034 main 306 306 P_____________ SH081997 -23.2000 58.2726 42 0 6 171
1996325S08104 1997 115 SI MM CHANTELLE:DANIELLA 1996-12-09 18:00:00 TS -23.5333 58.2333 30 995 reunion main 339 339 O_____________ jtwc_sh SH081997 -23.5000 58.3000 35 0 6 0
1996325S08104 1997 115 SI MM CHANTELLE:DANIELLA 1996-12-09 21:00:00 TS -23.8425 58.2168 main 372 372 P_____________ SH081997 -23.8000 58.3150 32 -1 7 185
1996325S08104 1997 115 SI MM CHANTELLE:DANIELLA 1996-12-10 00:00:00 TS -24.1800 58.1800 25 1000 reunion main 406 406 O_____________ jtwc_sh SH081997 -24.1000 58.3000 30 -1 7 0
1996325S08104 1997 115 SI MM CHANTELLE:DANIELLA 1996-12-10 03:00:00 TS -24.5538 58.2237 main 443 443 P_____________ SH081997 -24.4000 58.2576 27 -1 8 166
1996325S08104 1997 115 SI MM CHANTELLE:DANIELLA 1996-12-10 06:00:00 TS -24.9667 58.4000 25 1002 reunion main 491 491 O_____________ jtwc_sh SH081997 -24.7000 58.2000 25 -1 10 147
1996325S08104 1997 115 SI MM CHANTELLE:DANIELLA 1996-12-10 09:00:00 TS -25.4226 58.8425 main 551 551 ______________ SH081997 -1 10 135
1996325S08104 1997 115 SI MM CHANTELLE:DANIELLA 1996-12-10 12:00:00 TS -25.7000 59.2000 20 1004 reunion main 601 601 ______________ -1 8 135
1996325S08104 1997 115 SI MM CHANTELLE:DANIELLA 1996-12-10 15:00:00 TS -26.0173 59.4998 main 641 641 ______________ -1 7 133
1996325S08104 1997 115 SI MM CHANTELLE:DANIELLA 1996-12-10 18:00:00 TS -26.2000 59.8000 20 1006 reunion main 672 672 ______________ -1 6 101
1996325S08104 1997 115 SI MM CHANTELLE:DANIELLA 1996-12-10 21:00:00 TS -26.1277 60.1381 main 672 663 ______________ -1 7 64
1996325S08104 1997 115 SI MM CHANTELLE:DANIELLA 1996-12-11 00:00:00 TS -25.9000 60.5000 20 1008 reunion main 667 ______________ -1 8 55

IBTrACS Databaseについて

本データベースは、米国NOAAが公開する1842年以降の世界の熱帯低気圧のベストトラックデータアーカイブInternational Best Track Archive for Climate Stewardship (IBTrACS)を、ウェブで閲覧しやすい形式に変換したものです。

最終更新日:2021-10-08